SWR1LE LSZH-CYUL
Flight info
| Callsign | SWR1LE |
|---|---|
| Flight time | N/A |
| Altitude | 36000 |
| Route | DEGES3W DEGES Z1 ETAGO DCT LIRSU L608 DENUT L610 KOPUL Q63 ICTAM M197 ENHAQ DCT GAJIT DCT BAPHU DCT LESLU/M083F360 DCT EPUNA DCT RODEL/M083F370 NATG NICSO/N0472F400 DCT SATIP Q907 MIILS DCT KEBIG ROCKT3 |
| Aircraft | MD11/H-SDE1E2E3FGHIJ2J3J4J5M1RWXY/LB1D1 |
Departure
| Time | N/A |
|---|---|
| Airport | Zürich Airport (LSZH) |
Arrival
| Time | 2026-05-06 19:34 |
|---|---|
| Airport | Montreal / Pierre Elliott Trudeau International Airport (CYUL) |
| Time | Latitude | Longitude | Altitude | Speed | Heading |
|---|---|---|---|---|---|
| 2026-05-06 17:58 | 47.50534 | -59.86740 | 40067 ft | 422 kts | 266° |
| 2026-05-06 17:58 | 47.50390 | -59.91079 | 40056 ft | 422 kts | 266° |
| 2026-05-06 17:58 | 47.50092 | -59.99736 | 40037 ft | 421 kts | 266° |
| 2026-05-06 17:59 | 47.49792 | -60.08368 | 40045 ft | 422 kts | 266° |
| 2026-05-06 17:59 | 47.49483 | -60.17037 | 40031 ft | 422 kts | 266° |
| 2026-05-06 18:00 | 47.49173 | -60.25643 | 40033 ft | 422 kts | 266° |
| 2026-05-06 18:00 | 47.48853 | -60.34308 | 40035 ft | 422 kts | 266° |
| 2026-05-06 18:01 | 47.48522 | -60.42971 | 40021 ft | 422 kts | 266° |
| 2026-05-06 18:01 | 47.48185 | -60.51649 | 40018 ft | 422 kts | 266° |
| 2026-05-06 18:02 | 47.47846 | -60.60265 | 40015 ft | 422 kts | 266° |
| 2026-05-06 18:02 | 47.47471 | -60.68924 | 40015 ft | 421 kts | 265° |
| 2026-05-06 18:03 | 47.47096 | -60.77565 | 39998 ft | 421 kts | 266° |
| 2026-05-06 18:03 | 47.46790 | -60.84765 | 40003 ft | 422 kts | 266° |
| 2026-05-06 18:04 | 47.46424 | -60.93429 | 40006 ft | 421 kts | 266° |
| 2026-05-06 18:04 | 47.46055 | -61.02076 | 40001 ft | 421 kts | 265° |
| 2026-05-06 18:05 | 47.45680 | -61.10660 | 39998 ft | 421 kts | 265° |
| 2026-05-06 18:05 | 47.45300 | -61.19296 | 39993 ft | 421 kts | 265° |
| 2026-05-06 18:06 | 47.44913 | -61.27928 | 39993 ft | 421 kts | 266° |
| 2026-05-06 18:06 | 47.44526 | -61.36509 | 40011 ft | 421 kts | 265° |
| 2026-05-06 18:07 | 47.44132 | -61.44880 | 39993 ft | 420 kts | 265° |
| 2026-05-06 18:07 | 47.43715 | -61.53484 | 39991 ft | 420 kts | 265° |
| 2026-05-06 18:08 | 47.43298 | -61.62097 | 39989 ft | 420 kts | 265° |
| 2026-05-06 18:08 | 47.42864 | -61.70655 | 39989 ft | 420 kts | 264° |
| 2026-05-06 18:09 | 47.42215 | -61.79169 | 39990 ft | 419 kts | 262° |
| 2026-05-06 18:09 | 47.41500 | -61.87672 | 40007 ft | 419 kts | 263° |
| 2026-05-06 18:10 | 47.40795 | -61.96212 | 39979 ft | 417 kts | 263° |
| 2026-05-06 18:10 | 47.40114 | -62.04515 | 39969 ft | 416 kts | 263° |
| 2026-05-06 18:11 | 47.39422 | -62.12929 | 39969 ft | 417 kts | 263° |
| 2026-05-06 18:11 | 47.38719 | -62.21420 | 39957 ft | 416 kts | 263° |
| 2026-05-06 18:12 | 47.38010 | -62.29889 | 39959 ft | 416 kts | 263° |
| 2026-05-06 18:12 | 47.37299 | -62.38301 | 39969 ft | 415 kts | 263° |
| 2026-05-06 18:13 | 47.36582 | -62.46740 | 39954 ft | 411 kts | 263° |
| 2026-05-06 18:13 | 47.35868 | -62.55060 | 39953 ft | 408 kts | 263° |
| 2026-05-06 18:14 | 47.35156 | -62.63355 | 39951 ft | 409 kts | 263° |
| 2026-05-06 18:14 | 47.34431 | -62.71622 | 39947 ft | 409 kts | 263° |
| 2026-05-06 18:15 | 47.33700 | -62.79943 | 39940 ft | 409 kts | 263° |
| 2026-05-06 18:15 | 47.32959 | -62.88254 | 39934 ft | 408 kts | 263° |
| 2026-05-06 18:16 | 47.32193 | -62.96541 | 39942 ft | 406 kts | 262° |
| 2026-05-06 18:16 | 47.31419 | -63.04700 | 39935 ft | 403 kts | 262° |
| 2026-05-06 18:17 | 47.30657 | -63.12904 | 39934 ft | 404 kts | 262° |
| 2026-05-06 18:17 | 47.29896 | -63.21110 | 39928 ft | 404 kts | 262° |
| 2026-05-06 18:18 | 47.29131 | -63.29318 | 39926 ft | 404 kts | 262° |
| 2026-05-06 18:18 | 47.28369 | -63.37461 | 39926 ft | 404 kts | 262° |
| 2026-05-06 18:19 | 47.27600 | -63.45656 | 39924 ft | 403 kts | 262° |
| 2026-05-06 18:19 | 47.26826 | -63.53789 | 39917 ft | 398 kts | 262° |
| 2026-05-06 18:20 | 47.26052 | -63.61850 | 39919 ft | 396 kts | 262° |
| 2026-05-06 18:20 | 47.25279 | -63.69887 | 39915 ft | 397 kts | 262° |
| 2026-05-06 18:21 | 47.24505 | -63.77876 | 39914 ft | 397 kts | 262° |
| 2026-05-06 18:21 | 47.23718 | -63.85927 | 39914 ft | 397 kts | 262° |
| 2026-05-06 18:22 | 47.22924 | -63.93966 | 39912 ft | 397 kts | 261° |
| 2026-05-06 18:22 | 47.22126 | -64.01957 | 39911 ft | 397 kts | 261° |
| 2026-05-06 18:23 | 47.21324 | -64.09999 | 39899 ft | 397 kts | 261° |
| 2026-05-06 18:23 | 47.20491 | -64.18039 | 39892 ft | 397 kts | 261° |
| 2026-05-06 18:24 | 47.19644 | -64.26057 | 39898 ft | 396 kts | 261° |
| 2026-05-06 18:24 | 47.18843 | -64.33758 | 39895 ft | 396 kts | 261° |
| 2026-05-06 18:25 | 47.18018 | -64.41746 | 39914 ft | 396 kts | 261° |
| 2026-05-06 18:25 | 47.17188 | -64.49761 | 39898 ft | 395 kts | 261° |
| 2026-05-06 18:26 | 47.16357 | -64.57750 | 39893 ft | 395 kts | 261° |
| 2026-05-06 18:26 | 47.15525 | -64.65682 | 39886 ft | 395 kts | 261° |
| 2026-05-06 18:27 | 47.14677 | -64.73674 | 39886 ft | 395 kts | 261° |
| 2026-05-06 18:27 | 47.13824 | -64.81654 | 39897 ft | 395 kts | 261° |
| 2026-05-06 18:28 | 47.12979 | -64.89506 | 39889 ft | 395 kts | 260° |
| 2026-05-06 18:28 | 47.12111 | -64.97488 | 39893 ft | 395 kts | 260° |
| 2026-05-06 18:29 | 47.11250 | -65.05400 | 39887 ft | 392 kts | 260° |
| 2026-05-06 18:29 | 47.10388 | -65.13269 | 39887 ft | 393 kts | 259° |
| 2026-05-06 18:30 | 47.09515 | -65.21184 | 39892 ft | 393 kts | 259° |
| 2026-05-06 18:30 | 47.08634 | -65.29114 | 39892 ft | 393 kts | 259° |
| 2026-05-06 18:31 | 47.07732 | -65.37019 | 39894 ft | 393 kts | 259° |
| 2026-05-06 18:31 | 47.06816 | -65.44869 | 39911 ft | 393 kts | 259° |
| 2026-05-06 18:32 | 47.05917 | -65.52773 | 39886 ft | 391 kts | 259° |
| 2026-05-06 18:32 | 47.05020 | -65.60655 | 39890 ft | 392 kts | 259° |
| 2026-05-06 18:33 | 47.04122 | -65.68492 | 39888 ft | 392 kts | 259° |
| 2026-05-06 18:33 | 47.03209 | -65.76382 | 39888 ft | 392 kts | 259° |
| 2026-05-06 18:34 | 47.02292 | -65.84257 | 39887 ft | 392 kts | 259° |
| 2026-05-06 18:34 | 47.01373 | -65.92130 | 39887 ft | 392 kts | 259° |
| 2026-05-06 18:35 | 47.00452 | -65.99950 | 39894 ft | 392 kts | 258° |
| 2026-05-06 18:35 | 46.99518 | -66.07812 | 39882 ft | 391 kts | 258° |
| 2026-05-06 18:36 | 46.98575 | -66.15675 | 39863 ft | 391 kts | 258° |
| 2026-05-06 18:36 | 46.97632 | -66.23527 | 39876 ft | 392 kts | 258° |
| 2026-05-06 18:37 | 46.96847 | -66.30061 | 39872 ft | 392 kts | 258° |
| 2026-05-06 18:37 | 46.95743 | -66.39202 | 39868 ft | 392 kts | 258° |
| 2026-05-06 18:38 | 46.94792 | -66.47033 | 39878 ft | 392 kts | 258° |
| 2026-05-06 18:38 | 46.93824 | -66.54895 | 39862 ft | 392 kts | 258° |
| 2026-05-06 18:39 | 46.92822 | -66.62735 | 39867 ft | 392 kts | 258° |
| 2026-05-06 18:40 | 46.91339 | -66.74444 | 39865 ft | 392 kts | 258° |
| 2026-05-06 18:40 | 46.90351 | -66.82294 | 39846 ft | 391 kts | 257° |
| 2026-05-06 18:41 | 46.89363 | -66.90120 | 39861 ft | 391 kts | 258° |
| 2026-05-06 18:41 | 46.88361 | -66.97946 | 39868 ft | 391 kts | 256° |
| 2026-05-06 18:42 | 46.86943 | -67.05560 | 39865 ft | 390 kts | 252° |
| 2026-05-06 18:42 | 46.85353 | -67.12985 | 39866 ft | 390 kts | 251° |
| 2026-05-06 18:43 | 46.83734 | -67.20548 | 39861 ft | 390 kts | 251° |
| 2026-05-06 18:43 | 46.82135 | -67.28068 | 39855 ft | 390 kts | 252° |
| 2026-05-06 18:44 | 46.80525 | -67.35645 | 39861 ft | 390 kts | 252° |
| 2026-05-06 18:44 | 46.78919 | -67.43179 | 39853 ft | 390 kts | 251° |
| 2026-05-06 18:45 | 46.77301 | -67.50746 | 39865 ft | 390 kts | 251° |
| 2026-05-06 18:45 | 46.75677 | -67.58316 | 39863 ft | 390 kts | 251° |
| 2026-05-06 18:46 | 46.74060 | -67.65811 | 39852 ft | 390 kts | 251° |
| 2026-05-06 18:46 | 46.72422 | -67.73364 | 39852 ft | 390 kts | 251° |
| 2026-05-06 18:47 | 46.70781 | -67.80918 | 39862 ft | 390 kts | 251° |
| 2026-05-06 18:47 | 46.69139 | -67.88458 | 39848 ft | 390 kts | 251° |
| 2026-05-06 18:48 | 46.67503 | -67.95953 | 39847 ft | 390 kts | 251° |
| 2026-05-06 18:48 | 46.65915 | -68.03189 | 39867 ft | 391 kts | 251° |
| 2026-05-06 18:49 | 46.64258 | -68.10723 | 39851 ft | 390 kts | 251° |
| 2026-05-06 18:49 | 46.62577 | -68.18228 | 39852 ft | 390 kts | 250° |
| 2026-05-06 18:50 | 46.60893 | -68.25678 | 39853 ft | 390 kts | 250° |
| 2026-05-06 18:50 | 46.59209 | -68.33182 | 39859 ft | 390 kts | 250° |
| 2026-05-06 18:51 | 46.57531 | -68.40684 | 39845 ft | 390 kts | 251° |
| 2026-05-06 18:51 | 46.55849 | -68.48182 | 39867 ft | 390 kts | 250° |
| 2026-05-06 18:52 | 46.54171 | -68.55634 | 39885 ft | 390 kts | 250° |
| 2026-05-06 18:52 | 46.52481 | -68.63130 | 39869 ft | 390 kts | 250° |
| 2026-05-06 18:53 | 46.50781 | -68.70626 | 39867 ft | 390 kts | 250° |
| 2026-05-06 18:53 | 46.49078 | -68.78115 | 39867 ft | 390 kts | 250° |
| 2026-05-06 18:54 | 46.47383 | -68.85547 | 39866 ft | 390 kts | 250° |
| 2026-05-06 18:54 | 46.45671 | -68.93025 | 39852 ft | 391 kts | 250° |
| 2026-05-06 18:55 | 46.43953 | -69.00502 | 39869 ft | 391 kts | 250° |
| 2026-05-06 18:55 | 46.42236 | -69.07952 | 39876 ft | 392 kts | 249° |
| 2026-05-06 18:56 | 46.40807 | -69.14140 | 39876 ft | 392 kts | 249° |
| 2026-05-06 18:56 | 46.38802 | -69.22786 | 39870 ft | 391 kts | 249° |
| 2026-05-06 18:57 | 46.37353 | -69.29003 | 39872 ft | 392 kts | 249° |
| 2026-05-06 18:57 | 46.35571 | -69.36467 | 39872 ft | 392 kts | 249° |
| 2026-05-06 18:58 | 46.33805 | -69.43911 | 39853 ft | 391 kts | 249° |
| 2026-05-06 18:58 | 46.32043 | -69.51384 | 39867 ft | 393 kts | 249° |
| 2026-05-06 18:59 | 46.30323 | -69.58672 | 39887 ft | 393 kts | 250° |
| 2026-05-06 18:59 | 46.28551 | -69.66163 | 39860 ft | 396 kts | 249° |
| 2026-05-06 19:00 | 46.26768 | -69.73674 | 39860 ft | 396 kts | 249° |
| 2026-05-06 19:00 | 46.24975 | -69.81205 | 39856 ft | 396 kts | 249° |
| 2026-05-06 19:01 | 46.23206 | -69.88591 | 39854 ft | 395 kts | 249° |
| 2026-05-06 19:01 | 46.21400 | -69.96114 | 39848 ft | 396 kts | 249° |
| 2026-05-06 19:02 | 46.19585 | -70.03653 | 39842 ft | 397 kts | 249° |
| 2026-05-06 19:02 | 46.17779 | -70.11129 | 39860 ft | 397 kts | 249° |
| 2026-05-06 19:03 | 46.15947 | -70.18678 | 39845 ft | 399 kts | 249° |
| 2026-05-06 19:03 | 46.14108 | -70.26234 | 39837 ft | 399 kts | 249° |
| 2026-05-06 19:04 | 46.12319 | -70.33570 | 39838 ft | 399 kts | 249° |
| 2026-05-06 19:04 | 46.10454 | -70.41181 | 39837 ft | 399 kts | 249° |
| 2026-05-06 19:05 | 46.08577 | -70.48685 | 39532 ft | 403 kts | 249° |
| 2026-05-06 19:05 | 46.07628 | -70.52471 | 39234 ft | 401 kts | 249° |
| 2026-05-06 19:05 | 46.06685 | -70.56249 | 38775 ft | 399 kts | 249° |
| 2026-05-06 19:05 | 46.05756 | -70.59992 | 38254 ft | 395 kts | 249° |
| 2026-05-06 19:06 | 46.04835 | -70.63704 | 37741 ft | 393 kts | 248° |
| 2026-05-06 19:06 | 46.03911 | -70.67421 | 37238 ft | 394 kts | 248° |
| 2026-05-06 19:06 | 46.02985 | -70.71146 | 36763 ft | 395 kts | 248° |
| 2026-05-06 19:06 | 46.02057 | -70.74880 | 36280 ft | 396 kts | 247° |
| 2026-05-06 19:07 | 46.01136 | -70.78574 | 35819 ft | 397 kts | 247° |
| 2026-05-06 19:07 | 46.00202 | -70.82314 | 35351 ft | 398 kts | 247° |
| 2026-05-06 19:07 | 45.99338 | -70.86033 | 34903 ft | 400 kts | 251° |
| 2026-05-06 19:07 | 45.98856 | -70.90037 | 34450 ft | 406 kts | 258° |
| 2026-05-06 19:08 | 45.98685 | -70.93946 | 34024 ft | 411 kts | 261° |
| 2026-05-06 19:08 | 45.98622 | -70.98245 | 33502 ft | 413 kts | 262° |
| 2026-05-06 19:08 | 45.98587 | -71.02383 | 33034 ft | 415 kts | 262° |
| 2026-05-06 19:08 | 45.98542 | -71.06558 | 32568 ft | 418 kts | 262° |
| 2026-05-06 19:09 | 45.98480 | -71.10767 | 32128 ft | 421 kts | 262° |
| 2026-05-06 19:09 | 45.98409 | -71.14790 | 31674 ft | 424 kts | 262° |
| 2026-05-06 19:09 | 45.98329 | -71.18926 | 31219 ft | 426 kts | 262° |
| 2026-05-06 19:09 | 45.98241 | -71.23189 | 30754 ft | 428 kts | 262° |
| 2026-05-06 19:10 | 45.98150 | -71.27488 | 30266 ft | 430 kts | 262° |
| 2026-05-06 19:10 | 45.98053 | -71.31802 | 29737 ft | 431 kts | 262° |
| 2026-05-06 19:10 | 45.97957 | -71.36102 | 29189 ft | 429 kts | 263° |
| 2026-05-06 19:10 | 45.97858 | -71.40387 | 28662 ft | 426 kts | 262° |
| 2026-05-06 19:11 | 45.97757 | -71.44459 | 28242 ft | 422 kts | 262° |
| 2026-05-06 19:11 | 45.97657 | -71.48663 | 27953 ft | 419 kts | 263° |
| 2026-05-06 19:11 | 45.97556 | -71.52840 | 27852 ft | 417 kts | 262° |
| 2026-05-06 19:11 | 45.97443 | -71.56999 | 27823 ft | 416 kts | 262° |
| 2026-05-06 19:12 | 45.97328 | -71.60960 | 27758 ft | 414 kts | 262° |
| 2026-05-06 19:12 | 45.97209 | -71.65043 | 27411 ft | 417 kts | 262° |
| 2026-05-06 19:12 | 45.97092 | -71.69187 | 26859 ft | 412 kts | 263° |
| 2026-05-06 19:12 | 45.96986 | -71.73284 | 26332 ft | 409 kts | 263° |
| 2026-05-06 19:13 | 45.96876 | -71.77353 | 25807 ft | 406 kts | 263° |
| 2026-05-06 19:13 | 45.96770 | -71.81341 | 25296 ft | 403 kts | 263° |
| 2026-05-06 19:13 | 45.96664 | -71.85362 | 24779 ft | 400 kts | 264° |
| 2026-05-06 19:13 | 45.96561 | -71.89343 | 24273 ft | 397 kts | 264° |
| 2026-05-06 19:14 | 45.96460 | -71.93304 | 23798 ft | 395 kts | 265° |
| 2026-05-06 19:14 | 45.96364 | -71.97205 | 23240 ft | 390 kts | 265° |
| 2026-05-06 19:14 | 45.96257 | -72.01087 | 22673 ft | 386 kts | 264° |
| 2026-05-06 19:14 | 45.96146 | -72.04920 | 22157 ft | 382 kts | 264° |
| 2026-05-06 19:15 | 45.96037 | -72.08666 | 21658 ft | 380 kts | 264° |
| 2026-05-06 19:15 | 45.95924 | -72.12446 | 21246 ft | 377 kts | 265° |
| 2026-05-06 19:15 | 45.95817 | -72.16183 | 20809 ft | 375 kts | 265° |
| 2026-05-06 19:15 | 45.95710 | -72.19935 | 20339 ft | 372 kts | 265° |
| 2026-05-06 19:16 | 45.95604 | -72.23639 | 19866 ft | 370 kts | 264° |
| 2026-05-06 19:16 | 45.95493 | -72.27320 | 19395 ft | 367 kts | 263° |
| 2026-05-06 19:16 | 45.95371 | -72.30945 | 18931 ft | 365 kts | 264° |
| 2026-05-06 19:16 | 45.95245 | -72.34578 | 18462 ft | 362 kts | 264° |
| 2026-05-06 19:17 | 45.95096 | -72.38169 | 17983 ft | 357 kts | 261° |
| 2026-05-06 19:17 | 45.94537 | -72.41596 | 17472 ft | 351 kts | 249° |
| 2026-05-06 19:17 | 45.93545 | -72.44778 | 17013 ft | 347 kts | 243° |
| 2026-05-06 19:17 | 45.92426 | -72.47790 | 16551 ft | 345 kts | 241° |
| 2026-05-06 19:18 | 45.91265 | -72.50795 | 16097 ft | 343 kts | 241° |
| 2026-05-06 19:18 | 45.90117 | -72.53781 | 15641 ft | 341 kts | 241° |
| 2026-05-06 19:18 | 45.88978 | -72.56761 | 15202 ft | 339 kts | 241° |
| 2026-05-06 19:18 | 45.87851 | -72.59716 | 14758 ft | 337 kts | 241° |
| 2026-05-06 19:19 | 45.86737 | -72.62667 | 14323 ft | 335 kts | 242° |
| 2026-05-06 19:19 | 45.85635 | -72.65608 | 13881 ft | 334 kts | 241° |
| 2026-05-06 19:19 | 45.84532 | -72.68528 | 13416 ft | 332 kts | 242° |
| 2026-05-06 19:19 | 45.83452 | -72.71422 | 12949 ft | 330 kts | 242° |
| 2026-05-06 19:20 | 45.82374 | -72.74324 | 12519 ft | 329 kts | 242° |
| 2026-05-06 19:20 | 45.81299 | -72.77208 | 12113 ft | 327 kts | 242° |
| 2026-05-06 19:20 | 45.80253 | -72.79984 | 11706 ft | 325 kts | 242° |
| 2026-05-06 19:20 | 45.79177 | -72.82828 | 11293 ft | 324 kts | 242° |
| 2026-05-06 19:21 | 45.78111 | -72.85661 | 10997 ft | 322 kts | 242° |
| 2026-05-06 19:21 | 45.77088 | -72.88385 | 10875 ft | 313 kts | 242° |
| 2026-05-06 19:21 | 45.76104 | -72.91001 | 10761 ft | 285 kts | 242° |
| 2026-05-06 19:21 | 45.75203 | -72.93391 | 10655 ft | 261 kts | 242° |
| 2026-05-06 19:22 | 45.74377 | -72.95582 | 10571 ft | 250 kts | 242° |
| 2026-05-06 19:22 | 45.73560 | -72.97748 | 10480 ft | 247 kts | 242° |
| 2026-05-06 19:22 | 45.72752 | -72.99887 | 10381 ft | 236 kts | 242° |
| 2026-05-06 19:22 | 45.72095 | -73.01979 | 10226 ft | 228 kts | 252° |
| 2026-05-06 19:23 | 45.71759 | -73.04168 | 9926 ft | 230 kts | 258° |
| 2026-05-06 19:23 | 45.71500 | -73.06414 | 9535 ft | 229 kts | 259° |
| 2026-05-06 19:23 | 45.71255 | -73.08662 | 9156 ft | 228 kts | 259° |
| 2026-05-06 19:23 | 45.71008 | -73.10907 | 8787 ft | 229 kts | 258° |
| 2026-05-06 19:24 | 45.70670 | -73.13117 | 8431 ft | 229 kts | 255° |
| 2026-05-06 19:24 | 45.70282 | -73.15323 | 8126 ft | 228 kts | 255° |
| 2026-05-06 19:24 | 45.69899 | -73.17456 | 7814 ft | 214 kts | 255° |
| 2026-05-06 19:24 | 45.69542 | -73.19435 | 7522 ft | 210 kts | 255° |
| 2026-05-06 19:25 | 45.69189 | -73.21392 | 7224 ft | 210 kts | 255° |
| 2026-05-06 19:25 | 45.68822 | -73.23417 | 6935 ft | 211 kts | 255° |
| 2026-05-06 19:25 | 45.68455 | -73.25447 | 6638 ft | 212 kts | 256° |
| 2026-05-06 19:25 | 45.68140 | -73.27182 | 6374 ft | 212 kts | 256° |
| 2026-05-06 19:26 | 45.67771 | -73.29218 | 6076 ft | 213 kts | 256° |
| 2026-05-06 19:26 | 45.67404 | -73.31240 | 5798 ft | 214 kts | 256° |
| 2026-05-06 19:26 | 45.67037 | -73.33254 | 5526 ft | 205 kts | 257° |
| 2026-05-06 19:26 | 45.66681 | -73.35200 | 5278 ft | 205 kts | 258° |
| 2026-05-06 19:27 | 45.66333 | -73.37109 | 5028 ft | 206 kts | 258° |
| 2026-05-06 19:27 | 45.65971 | -73.39094 | 4760 ft | 207 kts | 258° |
| 2026-05-06 19:27 | 45.65612 | -73.41067 | 4495 ft | 207 kts | 258° |
| 2026-05-06 19:27 | 45.65249 | -73.43065 | 4222 ft | 208 kts | 258° |
| 2026-05-06 19:28 | 45.64889 | -73.45042 | 3964 ft | 208 kts | 258° |
| 2026-05-06 19:28 | 45.64526 | -73.47034 | 3692 ft | 207 kts | 258° |
| 2026-05-06 19:28 | 45.64166 | -73.49009 | 3436 ft | 207 kts | 258° |
| 2026-05-06 19:28 | 45.63805 | -73.50993 | 3171 ft | 206 kts | 258° |
| 2026-05-06 19:29 | 45.63415 | -73.52866 | 3005 ft | 188 kts | 249° |
| 2026-05-06 19:29 | 45.62665 | -73.54368 | 3003 ft | 187 kts | 229° |
| 2026-05-06 19:29 | 45.61835 | -73.55619 | 3027 ft | 187 kts | 229° |
| 2026-05-06 19:29 | 45.60938 | -73.56949 | 3013 ft | 188 kts | 228° |
| 2026-05-06 19:30 | 45.60001 | -73.58249 | 3007 ft | 188 kts | 225° |
| 2026-05-06 19:30 | 45.59036 | -73.59505 | 3010 ft | 188 kts | 225° |
| 2026-05-06 19:30 | 45.58074 | -73.60761 | 2850 ft | 183 kts | 225° |
| 2026-05-06 19:30 | 45.57182 | -73.61927 | 2567 ft | 167 kts | 225° |
| 2026-05-06 19:31 | 45.56338 | -73.63033 | 2353 ft | 163 kts | 225° |
| 2026-05-06 19:31 | 45.55526 | -73.64101 | 2125 ft | 151 kts | 225° |
| 2026-05-06 19:31 | 45.54092 | -73.65992 | 1752 ft | 141 kts | 224° |
| 2026-05-06 19:32 | 45.53372 | -73.66940 | 1545 ft | 141 kts | 224° |
| 2026-05-06 19:32 | 45.52656 | -73.67884 | 1360 ft | 140 kts | 223° |
| 2026-05-06 19:32 | 45.51947 | -73.68817 | 1160 ft | 138 kts | 224° |
| 2026-05-06 19:32 | 45.51201 | -73.69800 | 1049 ft | 154 kts | 224° |
| 2026-05-06 19:33 | 45.50401 | -73.70853 | 964 ft | 157 kts | 224° |
| 2026-05-06 19:33 | 45.49651 | -73.71854 | 606 ft | 139 kts | 224° |
| 2026-05-06 19:33 | 45.48961 | -73.72772 | 332 ft | 149 kts | 223° |
| 2026-05-06 19:33 | 45.48136 | -73.73846 | 154 ft | 157 kts | 224° |
| 2026-05-06 19:34 | 45.47468 | -73.74731 | 117 ft | 115 kts | 224° |
| 2026-05-06 19:34 | 45.46978 | -73.75384 | 113 ft | 80 kts | 223° |
| 2026-05-06 19:34 | 45.46734 | -73.75798 | 110 ft | 34 kts | 234° |
| 2026-05-06 19:34 | 45.46614 | -73.76038 | 110 ft | 25 kts | 237° |
| 2026-05-06 19:35 | 45.46561 | -73.76196 | 111 ft | 13 kts | 251° |
| 2026-05-06 19:35 | 45.45982 | -73.75635 | 112 ft | 0 kts | 177° |